sensor_id;sensor_type;location;lat;lon;timestamp;pressure;altitude;pressure_sealevel;temperature;humidity
54417;BME280;40326;51.220;7.250;2022-07-06T00:02:20;99177.88;;;11.53;100.00
54417;BME280;40326;51.220;7.250;2022-07-06T00:04:46;99182.03;;;11.35;100.00
54417;BME280;40326;51.220;7.250;2022-07-06T00:07:11;99181.56;;;11.26;100.00
54417;BME280;40326;51.220;7.250;2022-07-06T00:09:39;99187.28;;;11.11;100.00
54417;BME280;40326;51.220;7.250;2022-07-06T00:12:04;99189.44;;;10.99;100.00
54417;BME280;40326;51.220;7.250;2022-07-06T00:14:30;99197.78;;;11.04;100.00
54417;BME280;40326;51.220;7.250;2022-07-06T00:16:55;99204.34;;;11.12;100.00
54417;BME280;40326;51.220;7.250;2022-07-06T00:19:21;99210.28;;;11.12;100.00
54417;BME280;40326;51.220;7.250;2022-07-06T00:21:46;99207.97;;;11.28;100.00
54417;BME280;40326;51.220;7.250;2022-07-06T00:24:11;99204.72;;;11.24;100.00
54417;BME280;40326;51.220;7.250;2022-07-06T00:26:37;99194.66;;;11.40;100.00
54417;BME280;40326;51.220;7.250;2022-07-06T00:29:02;99200.75;;;11.37;100.00
54417;BME280;40326;51.220;7.250;2022-07-06T00:31:28;99194.34;;;11.48;100.00
54417;BME280;40326;51.220;7.250;2022-07-06T00:33:53;99192.88;;;11.42;100.00
54417;BME280;40326;51.220;7.250;2022-07-06T00:36:18;99189.00;;;11.32;100.00
54417;BME280;40326;51.220;7.250;2022-07-06T00:38:44;99194.09;;;11.33;100.00
54417;BME280;40326;51.220;7.250;2022-07-06T00:41:09;99188.97;;;11.33;100.00
54417;BME280;40326;51.220;7.250;2022-07-06T00:46:16;99172.63;;;11.77;100.00
54417;BME280;40326;51.220;7.250;2022-07-06T00:48:41;99160.31;;;11.85;100.00
54417;BME280;40326;51.220;7.250;2022-07-06T00:51:07;99157.97;;;11.80;100.00
54417;BME280;40326;51.220;7.250;2022-07-06T00:53:32;99162.56;;;11.72;100.00
54417;BME280;40326;51.220;7.250;2022-07-06T00:55:58;99154.41;;;11.62;100.00
54417;BME280;40326;51.220;7.250;2022-07-06T00:58:24;99156.47;;;11.54;100.00
54417;BME280;40326;51.220;7.250;2022-07-06T01:00:49;99164.22;;;11.53;100.00
54417;BME280;40326;51.220;7.250;2022-07-06T01:03:15;99162.06;;;11.44;100.00
54417;BME280;40326;51.220;7.250;2022-07-06T01:05:41;99155.19;;;11.44;100.00
54417;BME280;40326;51.220;7.250;2022-07-06T01:08:08;99168.56;;;11.30;100.00
54417;BME280;40326;51.220;7.250;2022-07-06T01:10:35;99170.94;;;11.35;100.00
54417;BME280;40326;51.220;7.250;2022-07-06T01:13:01;99172.28;;;11.23;100.00
54417;BME280;40326;51.220;7.250;2022-07-06T01:15:28;99168.22;;;11.18;100.00
54417;BME280;40326;51.220;7.250;2022-07-06T01:17:55;99166.72;;;11.12;100.00
54417;BME280;40326;51.220;7.250;2022-07-06T01:20:25;99160.84;;;11.10;100.00
54417;BME280;40326;51.220;7.250;2022-07-06T01:22:53;99171.38;;;11.02;100.00
54417;BME280;40326;51.220;7.250;2022-07-06T01:25:20;99170.06;;;10.92;100.00
54417;BME280;40326;51.220;7.250;2022-07-06T01:27:47;99174.03;;;10.79;100.00
54417;BME280;40326;51.220;7.250;2022-07-06T01:30:16;99177.41;;;10.79;100.00
54417;BME280;40326;51.220;7.250;2022-07-06T01:32:43;99177.50;;;10.55;100.00
54417;BME280;40326;51.220;7.250;2022-07-06T01:35:12;99186.41;;;10.44;100.00
54417;BME280;40326;51.220;7.250;2022-07-06T01:37:39;99186.63;;;10.38;100.00
54417;BME280;40326;51.220;7.250;2022-07-06T01:40:08;99189.38;;;10.34;100.00
54417;BME280;40326;51.220;7.250;2022-07-06T01:42:35;99193.31;;;10.17;100.00
54417;BME280;40326;51.220;7.250;2022-07-06T01:45:02;99196.50;;;10.24;100.00
54417;BME280;40326;51.220;7.250;2022-07-06T01:47:28;99198.28;;;10.22;100.00
54417;BME280;40326;51.220;7.250;2022-07-06T01:49:53;99188.75;;;10.27;100.00
54417;BME280;40326;51.220;7.250;2022-07-06T01:52:19;99191.88;;;10.35;100.00
54417;BME280;40326;51.220;7.250;2022-07-06T01:54:44;99188.63;;;10.30;100.00
54417;BME280;40326;51.220;7.250;2022-07-06T01:57:10;99193.41;;;10.39;100.00
54417;BME280;40326;51.220;7.250;2022-07-06T01:59:36;99187.72;;;10.55;100.00
54417;BME280;40326;51.220;7.250;2022-07-06T02:02:01;99186.84;;;10.56;100.00
54417;BME280;40326;51.220;7.250;2022-07-06T02:04:27;99190.19;;;10.58;100.00
54417;BME280;40326;51.220;7.250;2022-07-06T02:06:52;99185.38;;;10.72;100.00
54417;BME280;40326;51.220;7.250;2022-07-06T02:09:17;99181.00;;;10.97;100.00
54417;BME280;40326;51.220;7.250;2022-07-06T02:11:43;99174.53;;;10.87;100.00
54417;BME280;40326;51.220;7.250;2022-07-06T02:14:09;99177.41;;;10.79;100.00
54417;BME280;40326;51.220;7.250;2022-07-06T02:16:34;99185.13;;;10.78;100.00
54417;BME280;40326;51.220;7.250;2022-07-06T02:19:00;99187.81;;;10.75;100.00
54417;BME280;40326;51.220;7.250;2022-07-06T02:21:25;99186.28;;;10.71;100.00
54417;BME280;40326;51.220;7.250;2022-07-06T02:23:50;99186.41;;;10.44;100.00
54417;BME280;40326;51.220;7.250;2022-07-06T02:26:16;99202.25;;;10.31;100.00
54417;BME280;40326;51.220;7.250;2022-07-06T02:28:41;99191.25;;;10.29;100.00
54417;BME280;40326;51.220;7.250;2022-07-06T02:31:07;99193.75;;;10.30;100.00
54417;BME280;40326;51.220;7.250;2022-07-06T02:33:32;99191.75;;;10.13;100.00
54417;BME280;40326;51.220;7.250;2022-07-06T02:35:57;99207.41;;;10.04;100.00
54417;BME280;40326;51.220;7.250;2022-07-06T02:38:23;99203.94;;;9.82;100.00
54417;BME280;40326;51.220;7.250;2022-07-06T02:40:48;99220.50;;;9.70;100.00
54417;BME280;40326;51.220;7.250;2022-07-06T02:43:14;99223.59;;;9.55;100.00
54417;BME280;40326;51.220;7.250;2022-07-06T02:45:39;99232.50;;;9.42;100.00
54417;BME280;40326;51.220;7.250;2022-07-06T02:48:04;99229.41;;;9.32;100.00
54417;BME280;40326;51.220;7.250;2022-07-06T02:50:30;99228.38;;;9.11;100.00
54417;BME280;40326;51.220;7.250;2022-07-06T02:52:55;99237.00;;;9.07;100.00
54417;BME280;40326;51.220;7.250;2022-07-06T02:55:21;99238.09;;;8.98;100.00
54417;BME280;40326;51.220;7.250;2022-07-06T02:57:46;99237.38;;;8.95;100.00
54417;BME280;40326;51.220;7.250;2022-07-06T03:00:12;99242.84;;;8.82;100.00
54417;BME280;40326;51.220;7.250;2022-07-06T03:02:38;99246.91;;;8.88;100.00
54417;BME280;40326;51.220;7.250;2022-07-06T03:05:03;99250.50;;;8.82;100.00
54417;BME280;40326;51.220;7.250;2022-07-06T03:07:29;99260.31;;;8.96;100.00
54417;BME280;40326;51.220;7.250;2022-07-06T03:09:54;99259.41;;;8.97;100.00
54417;BME280;40326;51.220;7.250;2022-07-06T03:12:20;99259.47;;;8.96;100.00
54417;BME280;40326;51.220;7.250;2022-07-06T03:14:45;99265.63;;;8.89;100.00
54417;BME280;40326;51.220;7.250;2022-07-06T03:17:11;99268.34;;;9.12;100.00
54417;BME280;40326;51.220;7.250;2022-07-06T03:19:36;99276.63;;;9.20;100.00
54417;BME280;40326;51.220;7.250;2022-07-06T03:22:02;99273.91;;;9.26;100.00
54417;BME280;40326;51.220;7.250;2022-07-06T03:24:27;99276.78;;;9.42;100.00
54417;BME280;40326;51.220;7.250;2022-07-06T03:26:53;99271.25;;;9.56;100.00
54417;BME280;40326;51.220;7.250;2022-07-06T03:29:18;99268.72;;;9.82;100.00
54417;BME280;40326;51.220;7.250;2022-07-06T03:31:43;99267.03;;;9.81;100.00
54417;BME280;40326;51.220;7.250;2022-07-06T03:34:09;99257.34;;;9.91;100.00
54417;BME280;40326;51.220;7.250;2022-07-06T03:36:34;99263.28;;;9.91;100.00
54417;BME280;40326;51.220;7.250;2022-07-06T03:39:00;99268.16;;;9.73;100.00
54417;BME280;40326;51.220;7.250;2022-07-06T03:41:25;99268.59;;;9.85;100.00
54417;BME280;40326;51.220;7.250;2022-07-06T03:43:50;99271.63;;;9.96;100.00
54417;BME280;40326;51.220;7.250;2022-07-06T03:46:16;99252.31;;;10.13;100.00
54417;BME280;40326;51.220;7.250;2022-07-06T03:48:41;99252.47;;;10.35;100.00
54417;BME280;40326;51.220;7.250;2022-07-06T03:51:06;99247.94;;;10.41;100.00
54417;BME280;40326;51.220;7.250;2022-07-06T03:53:32;99241.84;;;10.45;100.00
54417;BME280;40326;51.220;7.250;2022-07-06T03:55:57;99244.91;;;10.55;100.00
54417;BME280;40326;51.220;7.250;2022-07-06T03:58:41;99240.06;;;10.47;100.00
54417;BME280;40326;51.220;7.250;2022-07-06T04:01:07;99242.09;;;10.38;100.00
54417;BME280;40326;51.220;7.250;2022-07-06T04:03:32;99245.75;;;10.31;100.00
54417;BME280;40326;51.220;7.250;2022-07-06T04:05:57;99248.25;;;10.32;100.00
54417;BME280;40326;51.220;7.250;2022-07-06T04:08:23;99248.50;;;10.26;100.00
54417;BME280;40326;51.220;7.250;2022-07-06T04:10:48;99247.00;;;10.19;100.00
54417;BME280;40326;51.220;7.250;2022-07-06T04:13:13;99245.03;;;10.27;100.00
54417;BME280;40326;51.220;7.250;2022-07-06T04:15:39;99247.66;;;10.26;100.00
54417;BME280;40326;51.220;7.250;2022-07-06T04:18:04;99253.78;;;10.20;100.00
54417;BME280;40326;51.220;7.250;2022-07-06T04:20:30;99251.50;;;10.37;100.00
54417;BME280;40326;51.220;7.250;2022-07-06T04:22:55;99255.41;;;10.47;100.00
54417;BME280;40326;51.220;7.250;2022-07-06T04:25:20;99255.97;;;10.56;100.00
54417;BME280;40326;51.220;7.250;2022-07-06T04:27:46;99262.44;;;10.66;100.00
54417;BME280;40326;51.220;7.250;2022-07-06T04:30:11;99246.91;;;10.70;100.00
54417;BME280;40326;51.220;7.250;2022-07-06T04:32:37;99251.78;;;11.22;100.00
54417;BME280;40326;51.220;7.250;2022-07-06T04:35:04;99233.53;;;11.51;100.00
54417;BME280;40326;51.220;7.250;2022-07-06T04:37:30;99231.75;;;11.53;100.00
54417;BME280;40326;51.220;7.250;2022-07-06T04:39:55;99230.25;;;11.68;100.00
54417;BME280;40326;51.220;7.250;2022-07-06T04:42:20;99224.06;;;11.74;100.00
54417;BME280;40326;51.220;7.250;2022-07-06T04:44:46;99223.56;;;11.86;100.00
54417;BME280;40326;51.220;7.250;2022-07-06T04:47:12;99225.88;;;11.72;100.00
54417;BME280;40326;51.220;7.250;2022-07-06T04:49:37;99219.84;;;11.93;100.00
54417;BME280;40326;51.220;7.250;2022-07-06T04:52:04;99217.94;;;11.98;100.00
54417;BME280;40326;51.220;7.250;2022-07-06T04:54:29;99219.53;;;12.01;100.00
54417;BME280;40326;51.220;7.250;2022-07-06T04:56:54;99222.31;;;12.35;100.00
54417;BME280;40326;51.220;7.250;2022-07-06T04:59:20;99210.41;;;12.53;100.00
54417;BME280;40326;51.220;7.250;2022-07-06T05:01:45;99221.59;;;12.52;100.00
54417;BME280;40326;51.220;7.250;2022-07-06T05:04:10;99216.66;;;12.66;100.00
54417;BME280;40326;51.220;7.250;2022-07-06T05:06:36;99221.31;;;12.77;100.00
54417;BME280;40326;51.220;7.250;2022-07-06T05:09:01;99218.38;;;12.85;100.00
54417;BME280;40326;51.220;7.250;2022-07-06T05:11:27;99212.47;;;13.20;100.00
54417;BME280;40326;51.220;7.250;2022-07-06T05:13:53;99215.81;;;13.22;100.00
54417;BME280;40326;51.220;7.250;2022-07-06T05:16:19;99211.38;;;12.88;100.00
54417;BME280;40326;51.220;7.250;2022-07-06T05:18:44;99210.53;;;12.88;100.00
54417;BME280;40326;51.220;7.250;2022-07-06T05:21:10;99206.59;;;12.81;100.00
54417;BME280;40326;51.220;7.250;2022-07-06T05:23:35;99207.00;;;12.90;100.00
54417;BME280;40326;51.220;7.250;2022-07-06T05:26:01;99206.88;;;13.29;100.00
54417;BME280;40326;51.220;7.250;2022-07-06T05:28:27;99208.44;;;13.51;100.00
54417;BME280;40326;51.220;7.250;2022-07-06T05:30:52;99209.53;;;13.28;100.00
54417;BME280;40326;51.220;7.250;2022-07-06T05:33:17;99207.94;;;13.25;100.00
54417;BME280;40326;51.220;7.250;2022-07-06T05:35:43;99210.63;;;13.41;100.00
54417;BME280;40326;51.220;7.250;2022-07-06T05:38:08;99211.31;;;13.62;100.00
54417;BME280;40326;51.220;7.250;2022-07-06T05:40:33;99204.56;;;13.77;100.00
54417;BME280;40326;51.220;7.250;2022-07-06T05:42:59;99201.63;;;13.67;100.00
54417;BME280;40326;51.220;7.250;2022-07-06T05:45:24;99199.16;;;13.99;100.00
54417;BME280;40326;51.220;7.250;2022-07-06T05:47:50;99201.38;;;13.72;100.00
54417;BME280;40326;51.220;7.250;2022-07-06T05:50:34;99201.16;;;13.94;100.00
54417;BME280;40326;51.220;7.250;2022-07-06T05:53:01;99198.13;;;14.18;100.00
54417;BME280;40326;51.220;7.250;2022-07-06T05:55:28;99199.41;;;14.27;100.00
54417;BME280;40326;51.220;7.250;2022-07-06T05:57:54;99198.25;;;14.00;100.00
54417;BME280;40326;51.220;7.250;2022-07-06T06:00:21;99192.84;;;14.37;100.00
54417;BME280;40326;51.220;7.250;2022-07-06T06:02:47;99203.56;;;13.97;100.00
54417;BME280;40326;51.220;7.250;2022-07-06T06:05:13;99205.06;;;13.83;100.00
54417;BME280;40326;51.220;7.250;2022-07-06T06:07:39;99206.59;;;14.05;100.00
54417;BME280;40326;51.220;7.250;2022-07-06T06:10:06;99204.41;;;14.30;100.00
54417;BME280;40326;51.220;7.250;2022-07-06T06:12:32;99197.25;;;14.68;100.00
54417;BME280;40326;51.220;7.250;2022-07-06T06:14:57;99207.38;;;14.56;100.00
54417;BME280;40326;51.220;7.250;2022-07-06T06:17:23;99203.34;;;14.34;100.00
54417;BME280;40326;51.220;7.250;2022-07-06T06:19:48;99204.41;;;14.30;100.00
54417;BME280;40326;51.220;7.250;2022-07-06T06:22:14;99219.56;;;14.19;100.00
54417;BME280;40326;51.220;7.250;2022-07-06T06:24:39;99205.44;;;14.43;100.00
54417;BME280;40326;51.220;7.250;2022-07-06T06:27:05;99216.03;;;14.55;100.00
54417;BME280;40326;51.220;7.250;2022-07-06T06:29:30;99212.66;;;14.04;100.00
54417;BME280;40326;51.220;7.250;2022-07-06T06:31:56;99219.56;;;14.19;100.00
54417;BME280;40326;51.220;7.250;2022-07-06T06:34:21;99220.13;;;14.59;100.00
54417;BME280;40326;51.220;7.250;2022-07-06T06:36:46;99226.81;;;13.60;100.00
54417;BME280;40326;51.220;7.250;2022-07-06T06:39:12;99226.88;;;14.11;100.00
54417;BME280;40326;51.220;7.250;2022-07-06T06:41:37;99228.41;;;13.80;100.00
54417;BME280;40326;51.220;7.250;2022-07-06T06:44:02;99228.16;;;14.53;100.00
54417;BME280;40326;51.220;7.250;2022-07-06T06:46:28;99222.00;;;14.55;100.00
54417;BME280;40326;51.220;7.250;2022-07-06T06:48:53;99220.13;;;15.68;100.00
54417;BME280;40326;51.220;7.250;2022-07-06T06:51:19;99206.22;;;15.09;100.00
54417;BME280;40326;51.220;7.250;2022-07-06T06:53:46;99213.94;;;15.70;100.00
54417;BME280;40326;51.220;7.250;2022-07-06T06:56:11;99206.44;;;14.74;100.00
54417;BME280;40326;51.220;7.250;2022-07-06T06:58:37;99217.59;;;14.24;100.00
54417;BME280;40326;51.220;7.250;2022-07-06T07:01:06;99211.97;;;14.82;100.00
54417;BME280;40326;51.220;7.250;2022-07-06T07:03:31;99214.66;;;14.65;100.00
54417;BME280;40326;51.220;7.250;2022-07-06T07:05:57;99218.59;;;15.18;100.00
54417;BME280;40326;51.220;7.250;2022-07-06T07:08:22;99213.41;;;15.19;100.00
54417;BME280;40326;51.220;7.250;2022-07-06T07:10:48;99214.88;;;15.23;100.00
54417;BME280;40326;51.220;7.250;2022-07-06T07:13:13;99223.09;;;15.46;100.00
54417;BME280;40326;51.220;7.250;2022-07-06T07:15:38;99219.69;;;15.29;100.00
54417;BME280;40326;51.220;7.250;2022-07-06T07:18:04;99226.53;;;15.15;100.00
54417;BME280;40326;51.220;7.250;2022-07-06T07:20:29;99216.13;;;15.00;100.00
54417;BME280;40326;51.220;7.250;2022-07-06T07:22:56;99214.44;;;15.77;100.00
54417;BME280;40326;51.220;7.250;2022-07-06T07:25:21;99225.53;;;15.93;100.00
54417;BME280;40326;51.220;7.250;2022-07-06T07:27:46;99208.44;;;15.76;100.00
54417;BME280;40326;51.220;7.250;2022-07-06T07:30:12;99215.50;;;15.43;100.00
54417;BME280;40326;51.220;7.250;2022-07-06T07:32:37;99219.84;;;15.26;100.00
54417;BME280;40326;51.220;7.250;2022-07-06T07:35:05;99216.50;;;15.40;100.00
54417;BME280;40326;51.220;7.250;2022-07-06T07:37:31;99211.22;;;15.12;100.00
54417;BME280;40326;51.220;7.250;2022-07-06T07:39:56;99227.19;;;15.18;100.00
54417;BME280;40326;51.220;7.250;2022-07-06T07:42:22;99228.59;;;15.40;100.00
54417;BME280;40326;51.220;7.250;2022-07-06T07:44:47;99221.69;;;16.00;100.00
54417;BME280;40326;51.220;7.250;2022-07-06T07:47:13;99220.53;;;15.60;100.00
54417;BME280;40326;51.220;7.250;2022-07-06T07:49:38;99226.66;;;16.89;100.00
54417;BME280;40326;51.220;7.250;2022-07-06T07:52:04;99197.59;;;17.92;100.00
54417;BME280;40326;51.220;7.250;2022-07-06T07:54:30;99204.88;;;17.33;100.00
54417;BME280;40326;51.220;7.250;2022-07-06T07:56:55;99196.88;;;16.96;100.00
54417;BME280;40326;51.220;7.250;2022-07-06T07:59:20;99190.44;;;16.89;100.00
54417;BME280;40326;51.220;7.250;2022-07-06T08:01:46;99197.22;;;16.77;100.00
54417;BME280;40326;51.220;7.250;2022-07-06T08:04:11;99197.19;;;17.18;100.00
54417;BME280;40326;51.220;7.250;2022-07-06T08:06:36;99190.31;;;16.49;100.00
54417;BME280;40326;51.220;7.250;2022-07-06T08:09:02;99197.78;;;17.09;100.00
54417;BME280;40326;51.220;7.250;2022-07-06T08:11:29;99196.59;;;17.27;100.00
54417;BME280;40326;51.220;7.250;2022-07-06T08:13:55;99198.81;;;16.37;100.00
54417;BME280;40326;51.220;7.250;2022-07-06T08:16:20;99199.44;;;16.69;100.00
54417;BME280;40326;51.220;7.250;2022-07-06T08:18:46;99203.78;;;17.37;100.00
54417;BME280;40326;51.220;7.250;2022-07-06T08:21:11;99196.22;;;17.86;100.00
54417;BME280;40326;51.220;7.250;2022-07-06T08:23:37;99184.81;;;17.76;100.00
54417;BME280;40326;51.220;7.250;2022-07-06T08:26:02;99199.47;;;17.23;100.00
54417;BME280;40326;51.220;7.250;2022-07-06T08:28:29;99193.28;;;17.65;100.00
54417;BME280;40326;51.220;7.250;2022-07-06T08:30:54;99193.97;;;16.59;100.00
54417;BME280;40326;51.220;7.250;2022-07-06T08:33:20;99201.13;;;16.13;100.00
54417;BME280;40326;51.220;7.250;2022-07-06T08:35:45;99201.72;;;15.88;100.00
54417;BME280;40326;51.220;7.250;2022-07-06T08:38:11;99196.81;;;15.53;100.00
54417;BME280;40326;51.220;7.250;2022-07-06T08:40:38;99197.56;;;15.25;100.00
54417;BME280;40326;51.220;7.250;2022-07-06T08:43:05;99200.81;;;15.29;100.00
54417;BME280;40326;51.220;7.250;2022-07-06T08:45:35;99204.81;;;15.19;100.00
54417;BME280;40326;51.220;7.250;2022-07-06T08:48:05;99202.69;;;15.41;100.00
54417;BME280;40326;51.220;7.250;2022-07-06T08:50:33;99202.78;;;15.70;100.00
54417;BME280;40326;51.220;7.250;2022-07-06T08:52:59;99195.81;;;15.86;100.00
54417;BME280;40326;51.220;7.250;2022-07-06T08:55:28;99198.63;;;16.26;100.00
54417;BME280;40326;51.220;7.250;2022-07-06T08:57:57;99197.09;;;15.79;100.00
54417;BME280;40326;51.220;7.250;2022-07-06T09:00:24;99200.22;;;15.54;100.00
54417;BME280;40326;51.220;7.250;2022-07-06T09:02:50;99203.22;;;15.92;100.00
54417;BME280;40326;51.220;7.250;2022-07-06T09:05:17;99198.84;;;15.48;100.00
54417;BME280;40326;51.220;7.250;2022-07-06T09:07:45;99200.06;;;15.87;100.00
54417;BME280;40326;51.220;7.250;2022-07-06T09:10:15;99197.50;;;16.01;100.00
54417;BME280;40326;51.220;7.250;2022-07-06T09:12:42;99203.44;;;16.17;100.00
54417;BME280;40326;51.220;7.250;2022-07-06T09:15:07;99207.28;;;15.96;100.00
54417;BME280;40326;51.220;7.250;2022-07-06T09:17:37;99208.75;;;16.43;100.00
54417;BME280;40326;51.220;7.250;2022-07-06T09:20:03;99202.66;;;16.58;100.00
54417;BME280;40326;51.220;7.250;2022-07-06T09:22:32;99206.13;;;17.00;100.00
54417;BME280;40326;51.220;7.250;2022-07-06T09:25:09;99198.66;;;17.62;100.00
54417;BME280;40326;51.220;7.250;2022-07-06T09:27:42;99200.78;;;17.43;100.00
54417;BME280;40326;51.220;7.250;2022-07-06T09:30:10;99194.59;;;17.58;100.00
54417;BME280;40326;51.220;7.250;2022-07-06T09:32:40;99185.53;;;17.25;100.00
54417;BME280;40326;51.220;7.250;2022-07-06T09:35:06;99193.81;;;17.03;100.00
54417;BME280;40326;51.220;7.250;2022-07-06T09:37:31;99193.03;;;17.16;100.00
54417;BME280;40326;51.220;7.250;2022-07-06T09:39:57;99185.25;;;16.89;100.00
54417;BME280;40326;51.220;7.250;2022-07-06T09:42:26;99186.94;;;17.44;100.00
54417;BME280;40326;51.220;7.250;2022-07-06T09:44:52;99189.34;;;17.33;100.00
54417;BME280;40326;51.220;7.250;2022-07-06T09:47:18;99188.44;;;19.10;100.00
54417;BME280;40326;51.220;7.250;2022-07-06T09:49:45;99190.31;;;19.56;79.95
54417;BME280;40326;51.220;7.250;2022-07-06T09:52:11;99184.34;;;19.43;85.18
54417;BME280;40326;51.220;7.250;2022-07-06T09:54:38;99181.91;;;19.99;77.65
54417;BME280;40326;51.220;7.250;2022-07-06T09:57:05;99177.13;;;19.35;85.34
54417;BME280;40326;51.220;7.250;2022-07-06T09:59:33;99175.06;;;20.20;65.07
54417;BME280;40326;51.220;7.250;2022-07-06T10:02:01;99184.84;;;19.94;65.54
54417;BME280;40326;51.220;7.250;2022-07-06T10:04:28;99181.25;;;19.38;63.34
54417;BME280;40326;51.220;7.250;2022-07-06T10:06:57;99175.63;;;18.59;67.24
54417;BME280;40326;51.220;7.250;2022-07-06T10:09:27;99174.63;;;19.34;65.95
54417;BME280;40326;51.220;7.250;2022-07-06T10:12:00;99170.03;;;19.37;73.11
54417;BME280;40326;51.220;7.250;2022-07-06T10:14:28;99173.78;;;19.57;83.94
54417;BME280;40326;51.220;7.250;2022-07-06T10:16:55;99170.38;;;19.33;81.56
54417;BME280;40326;51.220;7.250;2022-07-06T10:19:24;99170.94;;;18.77;100.00
54417;BME280;40326;51.220;7.250;2022-07-06T10:21:49;99179.59;;;18.52;100.00
54417;BME280;40326;51.220;7.250;2022-07-06T10:24:18;99182.34;;;18.00;87.42
54417;BME280;40326;51.220;7.250;2022-07-06T10:26:45;99178.25;;;18.47;100.00
54417;BME280;40326;51.220;7.250;2022-07-06T10:29:10;99174.00;;;19.30;100.00
54417;BME280;40326;51.220;7.250;2022-07-06T10:31:39;99174.25;;;19.27;67.62
54417;BME280;40326;51.220;7.250;2022-07-06T10:34:09;99173.28;;;19.17;68.80
54417;BME280;40326;51.220;7.250;2022-07-06T10:36:40;99171.88;;;20.05;56.85
54417;BME280;40326;51.220;7.250;2022-07-06T10:39:05;99167.09;;;19.77;56.55
54417;BME280;40326;51.220;7.250;2022-07-06T10:41:50;99167.84;;;19.20;66.54
54417;BME280;40326;51.220;7.250;2022-07-06T10:44:17;99172.16;;;19.32;70.59
54417;BME280;40326;51.220;7.250;2022-07-06T10:46:50;99167.94;;;18.58;100.00
54417;BME280;40326;51.220;7.250;2022-07-06T10:49:17;99164.41;;;18.09;100.00
54417;BME280;40326;51.220;7.250;2022-07-06T10:51:42;99161.75;;;18.60;100.00
54417;BME280;40326;51.220;7.250;2022-07-06T10:54:09;99164.88;;;19.48;100.00
54417;BME280;40326;51.220;7.250;2022-07-06T10:56:43;99167.44;;;19.61;89.92
54417;BME280;40326;51.220;7.250;2022-07-06T10:59:18;99164.84;;;19.61;64.01
54417;BME280;40326;51.220;7.250;2022-07-06T11:02:19;99168.38;;;19.36;82.18
54417;BME280;40326;51.220;7.250;2022-07-06T11:04:47;99156.97;;;18.67;86.65
54417;BME280;40326;51.220;7.250;2022-07-06T11:07:14;99160.53;;;18.90;80.28
54417;BME280;40326;51.220;7.250;2022-07-06T11:09:41;99167.25;;;19.51;81.64
54417;BME280;40326;51.220;7.250;2022-07-06T11:12:17;99161.44;;;19.83;76.18
54417;BME280;40326;51.220;7.250;2022-07-06T11:14:44;99169.72;;;20.10;78.33
54417;BME280;40326;51.220;7.250;2022-07-06T11:17:11;99166.19;;;20.11;70.41
54417;BME280;40326;51.220;7.250;2022-07-06T11:19:36;99166.06;;;19.55;71.96
54417;BME280;40326;51.220;7.250;2022-07-06T11:22:07;99161.84;;;20.23;68.07
54417;BME280;40326;51.220;7.250;2022-07-06T11:24:34;99166.09;;;20.47;63.29
54417;BME280;40326;51.220;7.250;2022-07-06T11:27:00;99170.81;;;20.41;72.19
54417;BME280;40326;51.220;7.250;2022-07-06T11:29:28;99170.94;;;20.40;65.96
54417;BME280;40326;51.220;7.250;2022-07-06T11:31:56;99162.94;;;19.39;68.93
54417;BME280;40326;51.220;7.250;2022-07-06T11:34:25;99163.47;;;18.60;81.88
54417;BME280;40326;51.220;7.250;2022-07-06T11:37:04;99160.44;;;19.03;96.94
54417;BME280;40326;51.220;7.250;2022-07-06T11:39:40;99164.06;;;18.89;77.50
54417;BME280;40326;51.220;7.250;2022-07-06T11:42:07;99162.06;;;19.16;71.71
54417;BME280;40326;51.220;7.250;2022-07-06T11:44:34;99162.78;;;19.18;73.66
54417;BME280;40326;51.220;7.250;2022-07-06T11:47:00;99161.34;;;20.07;69.47
54417;BME280;40326;51.220;7.250;2022-07-06T11:49:28;99156.50;;;20.47;62.40
54417;BME280;40326;51.220;7.250;2022-07-06T11:51:53;99166.44;;;21.08;65.09
54417;BME280;40326;51.220;7.250;2022-07-06T11:54:20;99160.53;;;20.18;69.25
54417;BME280;40326;51.220;7.250;2022-07-06T11:56:50;99155.91;;;20.55;77.17
54417;BME280;40326;51.220;7.250;2022-07-06T11:59:20;99156.53;;;21.34;68.82
54417;BME280;40326;51.220;7.250;2022-07-06T12:01:46;99158.84;;;22.70;57.79
54417;BME280;40326;51.220;7.250;2022-07-06T12:04:11;99156.63;;;20.34;60.80
54417;BME280;40326;51.220;7.250;2022-07-06T12:06:37;99156.88;;;20.31;55.78
54417;BME280;40326;51.220;7.250;2022-07-06T12:09:03;99151.19;;;20.15;60.80
54417;BME280;40326;51.220;7.250;2022-07-06T12:11:32;99157.44;;;20.12;63.40
54417;BME280;40326;51.220;7.250;2022-07-06T12:14:00;99158.94;;;19.35;73.33
54417;BME280;40326;51.220;7.250;2022-07-06T12:16:34;99153.72;;;19.24;80.90
54417;BME280;40326;51.220;7.250;2022-07-06T12:19:00;99153.72;;;18.76;89.25
54417;BME280;40326;51.220;7.250;2022-07-06T12:21:26;99149.81;;;18.70;99.51
54417;BME280;40326;51.220;7.250;2022-07-06T12:23:53;99150.13;;;18.90;100.00
54417;BME280;40326;51.220;7.250;2022-07-06T12:26:22;99149.19;;;18.67;88.33
54417;BME280;40326;51.220;7.250;2022-07-06T12:29:05;99154.88;;;19.20;86.82
54417;BME280;40326;51.220;7.250;2022-07-06T12:31:44;99139.56;;;19.28;79.60
54417;BME280;40326;51.220;7.250;2022-07-06T12:37:06;99137.41;;;19.57;70.97
54417;BME280;40326;51.220;7.250;2022-07-06T12:39:43;99133.00;;;18.51;81.62
54417;BME280;40326;51.220;7.250;2022-07-06T12:42:09;99129.66;;;19.68;82.53
54417;BME280;40326;51.220;7.250;2022-07-06T12:44:42;99125.53;;;20.22;82.00
54417;BME280;40326;51.220;7.250;2022-07-06T12:47:09;99125.44;;;19.90;86.82
54417;BME280;40326;51.220;7.250;2022-07-06T12:49:37;99127.44;;;19.97;80.66
54417;BME280;40326;51.220;7.250;2022-07-06T12:54:34;99117.78;;;20.76;72.28
54417;BME280;40326;51.220;7.250;2022-07-06T12:57:26;99111.53;;;19.55;69.14
54417;BME280;40326;51.220;7.250;2022-07-06T13:02:25;99120.47;;;20.09;74.50